Time;durP1;ratioP1;P1;durP2;ratioP2;P2;SDS_P1;SDS_P2;PMS_P1;PMS_P2;Temp;Humidity;BMP_temperature;BMP_pressure;BME280_temperature;BME280_humidity;BME280_pressure;Samples;Min_cycle;Max_cycle;Signal;HPM_P1;HPM_P2
2022/04/11 00:01:54;;;;;;;4.20;1.67;;;4.30;99.90;;;;;;5013371;28;20479;-49
2022/04/11 00:04:20;;;;;;;6.67;1.70;;;4.30;99.90;;;;;;5012954;28;20598;-49
2022/04/11 00:06:47;;;;;;;3.30;1.70;;;4.30;99.90;;;;;;5013128;28;20526;-49
2022/04/11 00:09:13;;;;;;;8.23;1.87;;;4.30;99.90;;;;;;5011883;28;20538;-49
2022/04/11 00:11:40;;;;;;;4.23;1.80;;;4.30;99.90;;;;;;5018233;28;20481;-49
2022/04/11 00:14:07;;;;;;;2.30;1.33;;;4.30;99.90;;;;;;5008725;28;20548;-50
2022/04/11 00:16:35;;;;;;;6.07;1.77;;;4.20;99.90;;;;;;5012243;28;20531;-49
2022/04/11 00:19:01;;;;;;;6.43;1.73;;;4.30;99.90;;;;;;5012154;28;20459;-49
2022/04/11 00:21:28;;;;;;;4.23;2.10;;;4.20;99.90;;;;;;5013082;28;20934;-49
2022/04/11 00:23:54;;;;;;;3.83;1.73;;;4.20;99.90;;;;;;5012555;28;20562;-49
2022/04/11 00:26:21;;;;;;;4.30;1.70;;;4.10;99.90;;;;;;5012663;28;20885;-49
2022/04/11 00:28:47;;;;;;;10.10;2.40;;;4.10;99.90;;;;;;5012030;28;20490;-49
2022/04/11 00:31:14;;;;;;;5.87;2.00;;;4.10;99.90;;;;;;5013006;28;20542;-49
2022/04/11 00:33:42;;;;;;;3.40;1.60;;;4.00;99.90;;;;;;5012466;28;20539;-48
2022/04/11 00:36:08;;;;;;;2.30;1.60;;;3.90;99.90;;;;;;5012745;28;20534;-49
2022/04/11 00:38:35;;;;;;;13.97;2.63;;;3.90;99.90;;;;;;5006200;28;20524;-49
2022/04/11 00:41:01;;;;;;;6.43;2.23;;;3.80;99.90;;;;;;4992769;28;20476;-49
2022/04/11 00:43:32;;;;;;;3.83;1.63;;;3.80;99.90;;;;;;5002630;28;20531;-49
2022/04/11 00:45:59;;;;;;;8.13;2.27;;;3.80;99.90;;;;;;5004026;28;20903;-49
2022/04/11 00:48:27;;;;;;;7.30;2.27;;;3.80;99.90;;;;;;4997950;28;20486;-48
2022/04/11 00:50:59;;;;;;;5.17;2.00;;;3.70;99.90;;;;;;5027727;28;20533;-49
2022/04/11 00:53:27;;;;;;;3.70;1.80;;;3.60;99.90;;;;;;5022072;28;20973;-49
2022/04/11 00:55:55;;;;;;;4.50;1.70;;;3.60;99.90;;;;;;5012258;28;20531;-49
2022/04/11 00:58:22;;;;;;;4.50;2.13;;;3.60;99.90;;;;;;5007053;28;21000;-49
2022/04/11 01:00:49;;;;;;;7.27;1.97;;;3.50;99.90;;;;;;5010869;28;21020;-49
2022/04/11 01:03:15;;;;;;;2.10;1.83;;;3.50;99.90;;;;;;5011569;28;20907;-49
2022/04/11 01:05:42;;;;;;;6.73;1.77;;;3.50;99.90;;;;;;5011606;28;21035;-49
2022/04/11 01:08:11;;;;;;;1.33;1.13;;;3.50;99.90;;;;;;5008402;28;20491;-49
2022/04/11 01:10:37;;;;;;;4.20;2.20;;;3.40;99.90;;;;;;5004710;28;20989;-50
2022/04/11 01:13:04;;;;;;;6.73;1.97;;;3.30;99.90;;;;;;5011478;28;21049;-49
2022/04/11 01:15:31;;;;;;;4.53;1.70;;;3.30;99.90;;;;;;5006468;28;20566;-49
2022/04/11 01:17:57;;;;;;;8.13;1.93;;;3.20;99.90;;;;;;5010828;28;20527;-49
2022/04/11 01:20:24;;;;;;;5.77;1.60;;;3.20;99.90;;;;;;5029028;28;20538;-49
2022/04/11 01:22:52;;;;;;;8.43;2.10;;;3.10;99.90;;;;;;5011536;28;20506;-48
2022/04/11 01:25:20;;;;;;;1.93;1.77;;;3.10;99.90;;;;;;5012188;28;20495;-48
2022/04/11 01:27:46;;;;;;;4.13;1.87;;;3.00;99.90;;;;;;5011832;28;20575;-49
2022/04/11 01:30:17;;;;;;;4.20;2.17;;;3.10;99.90;;;;;;4993525;28;20875;-48
2022/04/11 01:32:44;;;;;;;3.70;1.93;;;3.00;99.90;;;;;;4999323;28;20514;-48
2022/04/11 01:35:21;;;;;;;2.73;1.53;;;3.00;99.90;;;;;;5015752;28;21032;-49
2022/04/11 01:37:48;;;;;;;4.67;1.80;;;2.90;99.90;;;;;;5012245;28;20478;-48
2022/04/11 01:40:16;;;;;;;5.37;1.90;;;2.90;99.90;;;;;;5010330;28;20523;-49
2022/04/11 01:42:43;;;;;;;3.17;2.00;;;2.90;99.90;;;;;;5015538;28;20539;-49
2022/04/11 01:45:11;;;;;;;5.60;1.77;;;2.80;99.90;;;;;;5015729;28;20575;-49
2022/04/11 01:47:38;;;;;;;4.83;2.23;;;2.80;99.90;;;;;;5014383;28;20475;-48
2022/04/11 01:50:05;;;;;;;4.90;2.20;;;2.70;99.90;;;;;;5015567;28;20498;-49
2022/04/11 01:52:31;;;;;;;2.77;1.83;;;2.70;99.90;;;;;;5015641;28;20527;-49
2022/04/11 01:54:58;;;;;;;4.40;2.43;;;2.70;99.90;;;;;;5013770;28;20525;-48
2022/04/11 01:57:26;;;;;;;4.37;2.07;;;2.70;99.90;;;;;;5015158;28;20908;-48
2022/04/11 01:59:53;;;;;;;12.87;3.07;;;2.70;99.90;;;;;;4996025;28;20503;-49
2022/04/11 02:02:19;;;;;;;4.73;2.27;;;2.60;99.90;;;;;;5030455;28;20558;-49
2022/04/11 02:04:46;;;;;;;5.50;2.13;;;2.60;99.90;;;;;;5035154;28;20843;-49
2022/04/11 02:07:12;;;;;;;3.07;1.77;;;2.50;99.90;;;;;;5035176;28;20485;-50
2022/04/11 02:09:39;;;;;;;3.60;2.07;;;2.50;99.90;;;;;;5002306;28;20496;-50
2022/04/11 02:12:06;;;;;;;8.63;2.03;;;2.40;97.70;;;;;;5008992;28;20546;-48
2022/04/11 02:14:34;;;;;;;5.67;2.47;;;2.50;99.90;;;;;;5021753;23;20561;-50
2022/04/11 02:17:00;;;;;;;2.67;1.80;;;2.40;99.90;;;;;;5009733;28;20475;-48
2022/04/11 02:19:27;;;;;;;4.20;2.00;;;2.40;99.90;;;;;;5014444;28;20474;-47
2022/04/11 02:21:53;;;;;;;4.33;1.83;;;2.30;98.10;;;;;;5014586;28;20491;-48
2022/04/11 02:24:20;;;;;;;3.47;1.83;;;2.30;90.80;;;;;;5011022;28;20911;-48
2022/04/11 02:26:46;;;;;;;7.60;2.57;;;2.20;91.20;;;;;;5014322;28;20479;-48
2022/04/11 02:29:13;;;;;;;5.17;2.33;;;2.20;88.50;;;;;;5024925;28;20571;-48
2022/04/11 02:31:41;;;;;;;5.27;1.80;;;2.20;84.80;;;;;;5014748;28;20479;-48
2022/04/11 02:34:07;;;;;;;5.73;2.30;;;2.10;83.30;;;;;;5014387;28;20472;-48
2022/04/11 02:36:34;;;;;;;3.93;1.80;;;2.10;83.80;;;;;;5000982;28;20482;-48
2022/04/11 02:39:00;;;;;;;6.90;2.30;;;2.10;79.90;;;;;;5014533;28;20478;-48
2022/04/11 02:41:27;;;;;;;3.77;1.90;;;2.10;78.10;;;;;;5014932;28;20889;-48
2022/04/11 02:43:53;;;;;;;7.13;2.43;;;2.00;80.70;;;;;;4999536;28;20484;-47
2022/04/11 02:46:20;;;;;;;4.63;1.50;;;1.90;78.10;;;;;;4996115;28;20495;-47
2022/04/11 02:48:47;;;;;;;4.30;1.83;;;1.90;77.90;;;;;;4994511;28;20574;-48
2022/04/11 02:51:14;;;;;;;7.80;2.50;;;1.80;79.90;;;;;;4994890;28;20480;-49
2022/04/11 02:53:40;;;;;;;2.17;1.50;;;1.80;76.70;;;;;;5003582;28;20488;-48
2022/04/11 02:56:07;;;;;;;5.03;2.27;;;1.70;74.80;;;;;;5013935;28;20522;-48
2022/04/11 02:58:33;;;;;;;6.60;2.77;;;1.70;72.00;;;;;;5014240;28;20479;-48
2022/04/11 03:01:00;;;;;;;4.50;2.03;;;1.70;68.60;;;;;;5012982;28;20475;-48
2022/04/11 03:03:27;;;;;;;4.87;2.30;;;1.60;66.20;;;;;;4994732;28;20958;-48
2022/04/11 03:05:55;;;;;;;5.80;2.87;;;1.60;64.90;;;;;;5004828;28;20503;-47
2022/04/11 03:08:21;;;;;;;2.80;2.03;;;1.60;62.60;;;;;;5013963;28;20515;-48
2022/04/11 03:10:48;;;;;;;3.20;1.90;;;1.50;61.40;;;;;;5014605;28;20494;-48
2022/04/11 03:13:14;;;;;;;7.70;1.77;;;1.60;51.60;;;;;;5014593;28;20908;-48
2022/04/11 03:15:41;;;;;;;4.00;1.80;;;1.60;56.80;;;;;;5023954;28;20479;-49
2022/04/11 03:18:07;;;;;;;4.77;2.03;;;1.50;59.80;;;;;;5025747;28;20444;-48
2022/04/11 03:20:34;;;;;;;7.13;2.17;;;1.50;56.60;;;;;;5027597;28;20447;-49
2022/04/11 03:23:02;;;;;;;5.03;2.13;;;1.50;53.50;;;;;;5027978;28;20444;-48
2022/04/11 03:25:28;;;;;;;3.90;1.87;;;1.50;49.90;;;;;;5009260;28;20499;-49
2022/04/11 03:27:55;;;;;;;2.67;1.70;;;1.40;52.20;;;;;;5013042;28;20511;-48
2022/04/11 03:30:21;;;;;;;4.27;2.30;;;1.40;57.30;;;;;;5013823;28;20482;-48
2022/04/11 03:32:48;;;;;;;5.20;3.03;;;1.30;60.30;;;;;;5013982;28;20492;-48
2022/04/11 03:35:15;;;;;;;8.03;3.20;;;1.20;55.50;;;;;;5009419;28;21001;-49
2022/04/11 03:37:41;;;;;;;6.60;3.50;;;1.20;45.40;;;;;;4994491;28;20880;-48
2022/04/11 03:40:10;;;;;;;7.37;3.50;;;1.20;42.40;;;;;;5005248;28;20479;-48
2022/04/11 03:42:37;;;;;;;5.87;3.53;;;1.20;43.90;;;;;;5012929;28;20490;-48
2022/04/11 03:45:04;;;;;;;5.27;3.00;;;1.20;43.40;;;;;;5011332;28;20908;-48
2022/04/11 03:47:32;;;;;;;5.70;3.00;;;1.20;30.50;;;;;;5003578;28;20459;-47
2022/04/11 03:49:58;;;;;;;10.13;3.80;;;1.20;34.50;;;;;;5013621;28;20450;-48
2022/04/11 03:52:25;;;;;;;5.73;2.80;;;1.20;37.50;;;;;;5013476;28;20451;-48
2022/04/11 03:54:51;;;;;;;3.93;2.80;;;1.20;40.00;;;;;;5011095;28;20506;-48
2022/04/11 03:57:19;;;;;;;2.50;2.30;;;1.20;33.00;;;;;;4993731;28;20511;-47
2022/04/11 03:59:46;;;;;;;6.70;2.73;;;1.10;35.10;;;;;;5005980;28;20476;-48
2022/04/11 04:02:12;;;;;;;2.73;2.50;;;1.10;33.50;;;;;;5012902;28;20479;-48
2022/04/11 04:04:39;;;;;;;4.07;2.63;;;1.10;31.80;;;;;;5012891;28;20510;-47
2022/04/11 04:07:05;;;;;;;4.00;2.17;;;1.00;32.80;;;;;;5013030;28;20940;-48
2022/04/11 04:09:32;;;;;;;2.83;2.17;;;1.00;33.20;;;;;;5012817;28;20570;-48
2022/04/11 04:11:58;;;;;;;5.60;2.77;;;0.90;37.10;;;;;;5012944;28;20969;-48
2022/04/11 04:14:26;;;;;;;5.43;2.77;;;0.90;36.50;;;;;;5013034;28;20480;-48
2022/04/11 04:16:53;;;;;;;5.53;2.13;;;0.80;37.00;;;;;;4994792;28;20487;-48
2022/04/11 04:19:19;;;;;;;3.57;2.30;;;0.70;36.80;;;;;;4993055;28;20820;-47
2022/04/11 04:21:46;;;;;;;5.23;2.17;;;0.70;32.30;;;;;;4993299;28;21082;-47
2022/04/11 04:24:13;;;;;;;2.30;2.00;;;0.60;36.00;;;;;;5002050;28;20480;-48
2022/04/11 04:26:39;;;;;;;4.73;2.20;;;0.60;34.80;;;;;;5010552;28;20480;-47
2022/04/11 04:29:06;;;;;;;5.40;2.07;;;0.50;32.90;;;;;;5012465;28;20574;-48
2022/04/11 04:31:34;;;;;;;4.20;2.27;;;0.50;31.10;;;;;;5012045;28;20487;-48
2022/04/11 04:34:00;;;;;;;15.93;3.20;;;0.50;29.50;;;;;;5012349;28;20533;-48
2022/04/11 04:36:27;;;;;;;2.87;2.07;;;0.50;29.00;;;;;;5011980;28;20987;-47
2022/04/11 04:38:53;;;;;;;3.07;1.97;;;0.50;26.80;;;;;;5012429;28;20471;-48
2022/04/11 04:41:20;;;;;;;4.40;2.80;;;0.40;26.00;;;;;;4998602;28;20491;-47
2022/04/11 04:43:46;;;;;;;3.80;2.33;;;0.50;95.70;;;;;;4992779;28;20974;-49
2022/04/11 04:46:13;;;;;;;12.23;2.97;;;0.50;20.00;;;;;;4994521;28;20496;-49
2022/04/11 04:48:41;;;;;;;3.33;2.30;;;0.50;22.00;;;;;;5009934;28;20508;-47
2022/04/11 04:51:10;;;;;;;2.47;2.27;;;0.60;21.70;;;;;;5012015;28;20444;-48
2022/04/11 04:53:37;;;;;;;4.23;2.20;;;0.60;22.60;;;;;;5007871;28;20484;-48
2022/04/11 04:56:04;;;;;;;3.63;2.43;;;0.60;76.00;;;;;;5012099;28;20503;-47
2022/04/11 04:58:31;;;;;;;7.17;3.50;;;0.60;84.90;;;;;;5010428;28;20502;-47
2022/04/11 05:00:57;;;;;;;5.17;2.80;;;0.70;79.90;;;;;;4992844;28;21001;-47
2022/04/11 05:03:24;;;;;;;3.40;2.57;;;0.70;91.50;;;;;;4997154;28;20471;-49
2022/04/11 05:05:52;;;;;;;6.37;2.97;;;0.70;87.90;;;;;;5008277;28;20482;-48
2022/04/11 05:08:18;;;;;;;2.77;2.57;;;0.80;99.90;;;;;;4992282;28;20511;-47
2022/04/11 05:10:45;;;;;;;3.13;2.63;;;0.80;99.90;;;;;;5010678;28;20562;-48
2022/04/11 05:13:11;;;;;;;6.17;2.87;;;0.90;99.90;;;;;;5011800;28;20498;-47
2022/04/11 05:15:39;;;;;;;4.27;3.00;;;1.00;99.90;;;;;;5010926;28;20909;-46
2022/04/11 05:18:06;;;;;;;3.23;2.80;;;1.20;99.90;;;;;;5011607;28;20452;-48
2022/04/11 05:20:33;;;;;;;4.90;3.00;;;1.30;99.90;;;;;;5009792;28;20488;-46
2022/04/11 05:23:01;;;;;;;8.00;3.87;;;1.40;99.90;;;;;;5003556;28;20456;-48
2022/04/11 05:25:28;;;;;;;15.87;3.63;;;1.50;99.90;;;;;;5025112;28;20464;-48
2022/04/11 05:27:54;;;;;;;6.50;3.57;;;1.50;99.90;;;;;;5011733;28;20467;-47
2022/04/11 05:30:21;;;;;;;5.30;2.70;;;1.60;99.90;;;;;;5011923;28;21017;-48
2022/04/11 05:32:47;;;;;;;4.17;3.00;;;1.70;99.90;;;;;;5012072;28;20510;-48
2022/04/11 05:35:14;;;;;;;5.97;3.20;;;1.80;99.90;;;;;;5011708;28;21035;-48
2022/04/11 05:37:40;;;;;;;7.40;3.20;;;1.90;99.80;;;;;;5009749;28;20901;-48
2022/04/11 05:40:12;;;;;;;3.23;2.33;;;2.00;83.50;;;;;;5010229;28;20471;-48
2022/04/11 05:42:39;;;;;;;4.43;2.50;;;2.20;22.40;;;;;;5011939;28;20451;-48
2022/04/11 05:45:06;;;;;;;6.03;2.67;;;2.30;23.00;;;;;;5012036;28;20887;-48
2022/04/11 05:47:33;;;;;;;3.23;2.50;;;2.40;34.80;;;;;;5002341;28;20478;-48
2022/04/11 05:49:59;;;;;;;5.30;2.40;;;2.60;42.80;;;;;;5011726;28;21058;-47
2022/04/11 05:52:26;;;;;;;3.60;2.77;;;2.70;54.10;;;;;;5011790;28;20879;-47
2022/04/11 05:54:52;;;;;;;6.93;2.50;;;2.80;77.60;;;;;;5011281;28;20506;-47
2022/04/11 05:57:20;;;;;;;3.10;2.30;;;2.90;86.70;;;;;;5011834;28;20467;-47
2022/04/11 05:59:47;;;;;;;5.80;2.20;;;3.10;93.20;;;;;;5011727;28;20483;-47
2022/04/11 06:02:13;;;;;;;5.27;2.80;;;3.20;96.20;;;;;;5011741;28;20969;-48
2022/04/11 06:04:40;;;;;;;6.37;2.90;;;3.40;99.90;;;;;;5008551;28;20574;-47
2022/04/11 06:07:07;;;;;;;7.20;2.53;;;3.60;99.90;;;;;;5010269;28;20482;-48
2022/04/11 06:09:33;;;;;;;2.47;2.27;;;4.00;99.90;;;;;;5011264;28;20488;-47
2022/04/11 06:12:00;;;;;;;5.40;2.47;;;4.50;99.90;;;;;;5011457;28;20448;-48
2022/04/11 06:14:28;;;;;;;5.90;2.80;;;5.00;99.90;;;;;;5010971;28;20507;-48
2022/04/11 06:16:54;;;;;;;3.90;2.20;;;5.20;99.90;;;;;;5012266;28;20981;-48
2022/04/11 06:19:21;;;;;;;3.40;2.60;;;5.40;99.90;;;;;;5014699;28;20479;-48
2022/04/11 06:21:47;;;;;;;2.57;2.10;;;5.30;97.50;;;;;;5014844;28;20549;-48
2022/04/11 06:24:14;;;;;;;5.30;2.30;;;5.50;76.60;;;;;;5015019;28;20487;-48
2022/04/11 06:26:41;;;;;;;5.27;2.60;;;5.50;29.10;;;;;;5014457;28;20455;-47
2022/04/11 06:29:07;;;;;;;2.90;2.40;;;5.70;31.20;;;;;;5005563;28;20555;-48
2022/04/11 06:31:35;;;;;;;5.70;2.63;;;5.80;37.20;;;;;;5012991;28;20498;-47
2022/04/11 06:34:03;;;;;;;4.03;2.50;;;5.60;54.90;;;;;;5013143;28;20502;-48
2022/04/11 06:36:29;;;;;;;7.90;2.90;;;5.50;47.00;;;;;;5014658;28;20527;-47
2022/04/11 06:38:56;;;;;;;3.67;2.10;;;5.40;47.30;;;;;;5013608;28;20487;-47
2022/04/11 06:41:22;;;;;;;4.30;2.77;;;5.40;38.80;;;;;;5011980;28;21003;-48
2022/04/11 06:43:49;;;;;;;3.93;2.80;;;5.50;40.60;;;;;;5013564;28;20496;-48
2022/04/11 06:46:15;;;;;;;2.27;2.17;;;5.60;40.90;;;;;;5005963;28;20507;-47
2022/04/11 06:48:43;;;;;;;3.90;2.37;;;6.00;45.20;;;;;;5012116;28;20972;-48
2022/04/11 06:51:10;;;;;;;2.17;2.00;;;6.20;50.00;;;;;;5012828;28;20483;-47
2022/04/11 06:53:37;;;;;;;3.27;2.20;;;6.40;58.90;;;;;;5013248;28;20507;-46
2022/04/11 06:56:04;;;;;;;2.57;2.20;;;6.50;66.40;;;;;;5013753;28;20907;-46
2022/04/11 06:58:30;;;;;;;2.70;1.93;;;6.60;73.30;;;;;;5007491;28;20475;-47
2022/04/11 07:00:57;;;;;;;7.10;1.93;;;6.50;82.30;;;;;;5005784;28;20569;-47
2022/04/11 07:03:24;;;;;;;5.20;1.97;;;6.60;78.10;;;;;;5013643;28;20498;-47
2022/04/11 07:05:51;;;;;;;2.17;1.50;;;6.70;93.10;;;;;;5014253;28;20875;-47
2022/04/11 07:08:18;;;;;;;2.03;1.20;;;7.00;96.80;;;;;;5010950;28;20456;-47
2022/04/11 07:10:45;;;;;;;3.67;1.77;;;7.10;99.90;;;;;;5001281;28;20583;-47
2022/04/11 07:13:11;;;;;;;4.17;1.77;;;7.00;99.90;;;;;;5011580;28;20452;-48
2022/04/11 07:15:38;;;;;;;6.23;1.70;;;6.90;99.90;;;;;;5010570;28;20590;-46
2022/04/11 07:18:05;;;;;;;3.73;1.90;;;6.90;99.90;;;;;;5012735;28;20471;-47
2022/04/11 07:20:31;;;;;;;5.17;1.93;;;7.00;99.90;;;;;;5013247;28;20471;-47
2022/04/11 07:22:59;;;;;;;4.23;2.00;;;6.60;99.90;;;;;;5005605;28;20488;-46
2022/04/11 07:25:26;;;;;;;3.43;2.07;;;6.90;99.90;;;;;;5005912;28;20522;-48
2022/04/11 07:27:55;;;;;;;2.10;1.87;;;7.00;99.90;;;;;;5002761;28;20468;-47
2022/04/11 07:30:22;;;;;;;4.33;2.10;;;7.40;99.90;;;;;;5003481;28;20479;-46
2022/04/11 07:32:50;;;;;;;9.17;2.60;;;7.60;99.90;;;;;;5009512;28;20548;-47
2022/04/11 07:35:16;;;;;;;3.27;2.10;;;7.50;99.90;;;;;;5002210;28;20546;-47
2022/04/11 07:37:43;;;;;;;3.13;1.73;;;7.80;99.90;;;;;;5011604;28;20495;-47
2022/04/11 07:40:12;;;;;;;5.23;2.00;;;7.70;99.90;;;;;;5010790;28;20490;-47
2022/04/11 07:42:39;;;;;;;5.20;2.20;;;7.70;99.90;;;;;;5008141;28;20981;-47
2022/04/11 07:45:06;;;;;;;3.13;1.97;;;7.80;99.90;;;;;;5004311;28;20512;-47
2022/04/11 07:47:33;;;;;;;7.17;2.70;;;8.10;99.90;;;;;;5009859;28;20546;-47
2022/04/11 07:50:00;;;;;;;2.63;2.03;;;8.40;99.90;;;;;;5008441;28;20584;-47
2022/04/11 07:52:26;;;;;;;6.07;2.20;;;8.30;99.90;;;;;;5009337;28;20522;-47
2022/04/11 07:54:53;;;;;;;10.60;2.37;;;8.60;99.90;;;;;;5011184;28;20491;-47
2022/04/11 07:57:21;;;;;;;5.77;2.77;;;8.70;99.90;;;;;;5010778;28;20464;-47
2022/04/11 07:59:48;;;;;;;5.30;2.50;;;8.60;99.90;;;;;;5009664;28;20460;-47
2022/04/11 08:02:14;;;;;;;6.10;2.43;;;8.70;99.90;;;;;;5011458;28;20543;-47
2022/04/11 08:04:41;;;;;;;6.60;2.30;;;8.80;99.90;;;;;;5008777;28;20483;-48
2022/04/11 08:07:07;;;;;;;5.50;2.57;;;9.20;99.90;;;;;;5006972;28;20492;-48
2022/04/11 08:09:34;;;;;;;5.27;2.67;;;9.50;99.90;;;;;;5010637;28;20566;-47
2022/04/11 08:12:00;;;;;;;4.20;2.93;;;9.50;99.90;;;;;;5011273;28;20518;-47
2022/04/11 08:14:29;;;;;;;4.07;2.50;;;9.90;99.90;;;;;;5021762;23;20498;-52
2022/04/11 08:16:59;;;;;;;4.70;2.43;;;10.10;99.90;;;;;;5003182;28;20486;-52
2022/04/11 08:19:26;;;;;;;7.37;2.47;;;9.90;99.90;;;;;;5009643;28;20462;-52
2022/04/11 08:21:53;;;;;;;9.20;2.90;;;10.10;99.90;;;;;;5011144;28;20956;-52
2022/04/11 08:24:19;;;;;;;2.97;2.37;;;10.00;99.90;;;;;;5008066;28;20506;-52
2022/04/11 08:26:46;;;;;;;8.43;2.33;;;10.00;99.90;;;;;;5010499;28;20507;-52
2022/04/11 08:29:12;;;;;;;10.77;2.77;;;10.30;99.90;;;;;;5011192;28;20476;-52
2022/04/11 08:31:40;;;;;;;4.97;2.23;;;10.30;99.90;;;;;;5007463;28;20498;-52
2022/04/11 08:34:07;;;;;;;6.30;2.43;;;10.50;99.90;;;;;;5012174;28;20885;-53
2022/04/11 08:36:33;;;;;;;4.23;1.90;;;10.50;99.90;;;;;;5011896;28;20523;-52
2022/04/11 08:39:00;;;;;;;4.33;2.53;;;10.40;99.90;;;;;;5012465;28;20486;-51
2022/04/11 08:41:32;;;;;;;6.73;2.20;;;10.30;99.90;;;;;;5010999;28;20483;-52
2022/04/11 08:44:00;;;;;;;7.13;2.20;;;10.80;99.90;;;;;;5012614;28;20860;-52
2022/04/11 08:46:29;;;;;;;3.10;1.63;;;10.80;99.90;;;;;;5011050;28;20567;-53
2022/04/11 08:48:57;;;;;;;4.97;2.30;;;10.00;99.90;;;;;;5012083;28;20522;-52
2022/04/11 08:51:24;;;;;;;7.80;2.30;;;10.70;99.90;;;;;;5010440;28;20574;-52
2022/04/11 08:53:52;;;;;;;2.40;1.93;;;11.30;99.90;;;;;;5008617;28;20482;-52
2022/04/11 08:56:19;;;;;;;3.33;1.83;;;11.80;99.90;;;;;;5011639;28;21024;-52
2022/04/11 08:58:46;;;;;;;2.30;1.60;;;11.60;99.90;;;;;;5005183;28;20932;-52
2022/04/11 09:01:12;;;;;;;4.50;1.80;;;12.20;99.90;;;;;;5016486;28;20436;-53
2022/04/11 09:03:41;;;;;;;10.47;2.10;;;13.10;99.90;;;;;;5012049;28;20535;-53
2022/04/11 09:06:13;;;;;;;4.40;1.33;;;13.10;99.90;;;;;;5011019;28;20499;-52
2022/04/11 09:08:42;;;;;;;3.30;1.60;;;13.00;99.90;;;;;;5012684;28;20487;-52
2022/04/11 09:11:09;;;;;;;5.20;1.90;;;12.40;99.90;;;;;;5011677;28;20598;-52
2022/04/11 09:13:50;;;;;;;4.33;1.67;;;11.90;99.90;;;;;;5011156;28;20475;-52
2022/04/11 09:16:17;;;;;;;2.10;1.50;;;12.70;99.90;;;;;;5004900;28;20563;-51
2022/04/11 09:18:48;;;;;;;3.43;2.07;;;12.80;99.90;;;;;;5004795;28;20496;-52
2022/04/11 09:21:17;;;;;;;3.60;1.77;;;12.10;99.90;;;;;;5012405;28;20454;-53
2022/04/11 09:23:44;;;;;;;1.37;1.20;;;12.90;99.90;;;;;;5012354;28;20447;-54
2022/04/11 09:26:21;;;;;;;5.07;2.17;;;12.80;99.90;;;;;;5007871;28;20546;-52
2022/04/11 09:29:03;;;;;;;5.13;2.00;;;13.40;99.90;;;;;;4992198;28;20873;-52
2022/04/11 09:31:31;;;;;;;3.50;1.70;;;12.90;99.90;;;;;;4990305;28;20860;-53
2022/04/11 09:33:58;;;;;;;2.63;1.40;;;13.00;99.90;;;;;;4993432;28;20480;-53
2022/04/11 09:36:44;;;;;;;4.17;1.40;;;12.90;99.90;;;;;;5011414;28;20530;-53
2022/04/11 09:39:11;;;;;;;2.07;1.60;;;13.40;99.90;;;;;;5011761;28;20947;-53
2022/04/11 09:41:43;;;;;;;1.87;1.20;;;14.20;99.90;;;;;;5011834;28;20478;-54
2022/04/11 09:44:23;;;;;;;7.63;1.60;;;14.40;99.90;;;;;;5011769;28;20995;-53
2022/04/11 09:46:50;;;;;;;2.03;1.80;;;14.80;99.90;;;;;;5003013;28;20448;-53
2022/04/11 09:49:17;;;;;;;2.70;1.80;;;14.30;99.90;;;;;;4992256;28;20460;-54
2022/04/11 09:52:04;;;;;;;3.13;1.33;;;14.30;99.90;;;;;;5003434;28;20487;-52
2022/04/11 09:54:31;;;;;;;4.00;1.70;;;13.60;99.90;;;;;;5015738;28;20936;-52
2022/04/11 09:56:59;;;;;;;5.40;1.60;;;13.80;99.90;;;;;;5006039;28;20503;-52
2022/04/11 09:59:26;;;;;;;1.30;1.20;;;13.50;99.90;;;;;;4995939;28;20480;-52
2022/04/11 10:01:53;;;;;;;1.40;1.30;;;13.40;99.90;;;;;;4995760;28;20992;-52
2022/04/11 10:04:21;;;;;;;1.70;1.40;;;13.70;99.90;;;;;;4995896;28;20899;-52
2022/04/11 10:06:48;;;;;;;1.43;1.10;;;13.60;99.90;;;;;;5004080;28;20475;-53
2022/04/11 10:09:19;;;;;;;3.43;1.40;;;13.60;99.90;;;;;;5015005;28;20486;-52
2022/04/11 10:11:46;;;;;;;0.90;0.90;;;14.30;99.90;;;;;;5015175;28;20538;-53
2022/04/11 10:14:15;;;;;;;1.53;1.00;;;14.60;99.90;;;;;;5014474;28;20525;-52
2022/04/11 10:16:43;;;;;;;3.53;1.37;;;15.00;99.90;;;;;;4995675;28;20448;-52
2022/04/11 10:19:11;;;;;;;1.40;1.30;;;14.20;99.90;;;;;;4995248;28;20483;-52
2022/04/11 10:21:41;;;;;;;3.53;1.00;;;14.60;99.90;;;;;;4995723;28;20837;-53
2022/04/11 10:24:13;;;;;;;2.00;1.00;;;14.40;99.90;;;;;;4995760;28;20531;-53
2022/04/11 10:26:45;;;;;;;0.90;0.90;;;14.10;99.90;;;;;;5007034;28;20842;-53
2022/04/11 10:29:31;;;;;;;1.30;1.20;;;14.10;99.90;;;;;;5014816;28;20439;-53
2022/04/11 10:32:06;;;;;;;1.53;1.00;;;13.50;99.90;;;;;;5014903;28;20877;-53
2022/04/11 10:34:45;;;;;;;3.37;1.20;;;13.60;99.90;;;;;;5013542;28;20510;-52
2022/04/11 10:37:11;;;;;;;1.63;1.20;;;13.50;99.90;;;;;;5014766;28;20952;-53
2022/04/11 10:39:39;;;;;;;3.77;0.90;;;13.50;99.90;;;;;;5014591;28;20518;-53
2022/04/11 10:42:15;;;;;;;1.00;1.00;;;14.30;99.90;;;;;;5014325;28;20882;-53
2022/04/11 10:44:43;;;;;;;3.30;1.10;;;14.40;99.90;;;;;;4999092;28;20506;-53
2022/04/11 10:47:33;;;;;;;2.60;1.20;;;14.30;99.90;;;;;;5014826;28;20459;-53
2022/04/11 10:50:22;;;;;;;2.23;0.90;;;14.10;99.90;;;;;;5014938;28;20443;-53
2022/04/11 10:53:12;;;;;;;8.30;1.93;;;15.10;99.90;;;;;;5015045;28;20451;-52
2022/04/11 10:55:58;;;;;;;1.93;1.20;;;14.70;99.90;;;;;;5002857;28;20469;-55
2022/04/11 10:58:44;;;;;;;2.00;1.40;;;15.30;99.90;;;;;;4994902;28;20528;-51
2022/04/11 11:01:12;;;;;;;6.30;1.60;;;14.50;99.90;;;;;;5001295;28;20985;-53
2022/04/11 11:03:40;;;;;;;1.40;1.30;;;14.50;99.90;;;;;;5013506;28;20443;-52
2022/04/11 11:06:17;;;;;;;1.93;1.20;;;14.50;99.90;;;;;;5013903;28;21067;-53
2022/04/11 11:08:44;;;;;;;3.03;1.93;;;14.40;99.90;;;;;;5013929;28;21003;-52
2022/04/11 11:11:23;;;;;;;1.70;1.60;;;14.40;99.90;;;;;;5006439;28;20487;-54
2022/04/11 11:13:52;;;;;;;1.67;1.50;;;14.90;99.90;;;;;;5013771;28;20534;-53
2022/04/11 11:16:55;;;;;;;2.23;1.43;;;14.40;99.90;;;;;;5012883;28;21035;-53
2022/04/11 11:19:22;;;;;;;2.10;1.50;;;14.10;99.90;;;;;;5013843;28;20489;-53
2022/04/11 11:22:08;;;;;;;3.87;1.07;;;14.20;99.90;;;;;;5014062;28;20475;-53
2022/04/11 11:24:35;;;;;;;6.47;1.50;;;14.30;99.90;;;;;;5012372;28;20467;-54
2022/04/11 11:27:05;;;;;;;5.23;1.50;;;15.00;99.90;;;;;;4999810;28;20869;-53
2022/04/11 11:29:40;;;;;;;2.20;1.80;;;14.10;99.90;;;;;;5013730;28;20535;-53
2022/04/11 11:32:09;;;;;;;4.23;1.60;;;12.80;99.90;;;;;;5013406;28;20570;-53
2022/04/11 11:34:37;;;;;;;1.77;1.40;;;13.10;99.90;;;;;;4994310;28;20469;-53
2022/04/11 11:37:06;;;;;;;1.10;1.10;;;13.40;99.90;;;;;;4997690;28;20483;-53
2022/04/11 11:39:35;;;;;;;2.23;1.57;;;13.50;99.90;;;;;;5013394;28;20448;-52
2022/04/11 11:42:03;;;;;;;2.63;1.17;;;13.70;99.90;;;;;;5013741;28;20467;-53
2022/04/11 11:44:31;;;;;;;3.47;1.50;;;13.40;99.90;;;;;;5011742;28;20589;-53
2022/04/11 11:47:01;;;;;;;1.80;1.20;;;13.30;99.90;;;;;;4993901;28;20455;-53
2022/04/11 11:49:29;;;;;;;4.87;1.50;;;13.20;99.90;;;;;;5000536;28;20509;-52
2022/04/11 11:51:56;;;;;;;2.90;1.60;;;13.30;99.90;;;;;;5013637;28;20579;-52
2022/04/11 11:54:34;;;;;;;1.77;1.53;;;13.60;99.90;;;;;;5013294;28;21008;-52
2022/04/11 11:57:01;;;;;;;10.30;1.57;;;14.10;99.90;;;;;;4993834;28;20539;-53
2022/04/11 11:59:27;;;;;;;10.40;1.97;;;14.60;99.90;;;;;;4993942;28;20493;-53
2022/04/11 12:04:18;;;;;;;4.23;1.77;;;13.80;99.90;;;;;;4993939;28;20448;-52
2022/04/11 12:04:55;;;;;;;7.00;1.47;;;13.90;99.90;;;;;;4996841;28;20834;-53
2022/04/11 12:07:23;;;;;;;2.57;1.23;;;14.80;99.90;;;;;;5013433;28;20483;-52
2022/04/11 12:09:50;;;;;;;4.23;1.60;;;14.90;99.90;;;;;;5012863;28;20452;-53
2022/04/11 12:12:19;;;;;;;1.53;1.43;;;13.80;99.90;;;;;;5013349;28;20522;-53
2022/04/11 12:15:00;;;;;;;3.73;1.70;;;13.90;99.90;;;;;;5012993;28;20870;-53
2022/04/11 12:17:30;;;;;;;2.93;1.20;;;14.40;99.90;;;;;;5012884;28;20447;-53
2022/04/11 12:20:11;;;;;;;2.07;1.20;;;13.90;99.90;;;;;;4994522;28;20488;-52
2022/04/11 12:22:39;;;;;;;2.07;1.30;;;13.40;99.90;;;;;;5006160;28;20999;-52
2022/04/11 12:25:22;;;;;;;2.77;1.60;;;13.10;99.90;;;;;;5012817;28;20503;-53
2022/04/11 12:27:49;;;;;;;2.50;1.47;;;13.40;99.90;;;;;;5012502;28;20486;-52
2022/04/11 12:30:17;;;;;;;3.80;1.90;;;13.10;99.90;;;;;;5012668;28;20451;-53
2022/04/11 12:32:43;;;;;;;2.97;1.30;;;12.60;99.90;;;;;;5012822;28;20447;-53
2022/04/11 12:35:19;;;;;;;6.10;1.60;;;12.40;99.90;;;;;;5012874;28;20495;-52
2022/04/11 12:37:49;;;;;;;1.90;1.80;;;12.50;99.90;;;;;;5011916;28;20551;-53
2022/04/11 12:40:16;;;;;;;2.30;1.70;;;13.00;99.90;;;;;;5011575;28;20452;-52
2022/04/11 12:42:43;;;;;;;2.20;1.57;;;13.00;99.90;;;;;;5012571;28;20444;-53
2022/04/11 12:45:12;;;;;;;2.00;1.70;;;13.00;99.90;;;;;;5012919;28;20499;-53
2022/04/11 12:48:01;;;;;;;2.23;1.03;;;13.80;99.90;;;;;;5012096;28;20968;-53
2022/04/11 12:50:29;;;;;;;1.90;1.20;;;14.30;99.90;;;;;;5012530;28;20443;-53
2022/04/11 12:52:56;;;;;;;1.67;1.57;;;15.40;99.90;;;;;;5012438;28;20478;-52
2022/04/11 12:55:28;;;;;;;1.33;1.23;;;14.80;99.90;;;;;;5011914;28;20496;-53
2022/04/11 12:58:05;;;;;;;3.00;1.40;;;14.00;99.90;;;;;;5012186;28;20492;-52
2022/04/11 13:00:33;;;;;;;4.40;1.67;;;12.70;99.90;;;;;;4994481;28;20448;-53